createdAt,value
2023-04-04T00:03:54.051Z,75
2023-04-04T00:08:53.335Z,76
2023-04-04T00:13:53.296Z,76
2023-04-04T00:18:50.718Z,77
2023-04-04T00:23:50.673Z,77
2023-04-04T00:28:49.639Z,77
2023-04-04T00:33:49.023Z,77
2023-04-04T00:38:47.554Z,77
2023-04-04T00:43:46.976Z,77
2023-04-04T00:48:47.392Z,78
2023-04-04T00:53:46.508Z,78
2023-04-04T00:58:45.950Z,78
2023-04-04T01:00:06.675Z,78
2023-04-04T01:40:02.838Z,81
2023-04-04T01:50:54.156Z,83
2023-04-04T01:55:02.430Z,84
2023-04-04T01:59:07.747Z,84
2023-04-04T02:09:06.396Z,84
2023-04-04T02:14:05.556Z,84
2023-04-04T02:19:05.481Z,85
2023-04-04T02:24:04.775Z,86
2023-04-04T02:29:05.574Z,86
2023-04-04T02:34:02.876Z,86
2023-04-04T02:39:02.568Z,86
2023-04-04T02:44:02.223Z,86
2023-04-04T02:49:01.072Z,87
2023-04-04T02:54:00.842Z,87
2023-04-04T02:59:00.619Z,87
2023-04-04T03:04:00.179Z,88
2023-04-04T03:09:00.760Z,87
2023-04-04T03:13:57.978Z,87
2023-04-04T03:18:57.811Z,87
2023-04-04T03:28:56.608Z,88
2023-04-04T03:33:55.013Z,89
2023-04-04T03:38:54.384Z,89
2023-04-04T03:43:54.546Z,89
2023-04-04T03:48:53.425Z,89
2023-04-04T03:53:52.805Z,90
2023-04-04T03:58:52.468Z,90
2023-04-04T04:03:52.315Z,90
2023-04-04T04:08:51.463Z,90
2023-04-04T04:13:52.368Z,90
2023-04-04T04:18:49.096Z,90
2023-04-04T04:23:49.277Z,90
2023-04-04T04:28:49.102Z,90
2023-04-04T04:33:47.934Z,90
2023-04-04T04:38:47.640Z,90
2023-04-04T04:43:47.722Z,90
2023-04-04T04:48:46.551Z,90
2023-04-04T04:53:47.350Z,90
2023-04-04T04:58:44.779Z,90
2023-04-04T05:00:05.760Z,90
2023-04-04T05:05:05.614Z,90
2023-04-04T05:10:05.138Z,90
2023-04-04T05:15:04.445Z,90
2023-04-04T05:25:03.238Z,91
2023-04-04T05:30:02.761Z,91
2023-04-04T05:35:01.874Z,91
2023-04-04T05:40:01.960Z,91
2023-04-04T05:45:01.587Z,91
2023-04-04T05:50:00.209Z,91
2023-04-04T05:54:58.267Z,91
2023-04-04T05:59:25.149Z,92
2023-04-04T06:04:25.545Z,92
2023-04-04T06:09:24.630Z,91
2023-04-04T06:14:25.709Z,91
2023-04-04T06:19:23.400Z,92
2023-04-04T06:24:23.541Z,92
2023-04-04T06:29:24.548Z,92
2023-04-04T06:34:22.880Z,91
2023-04-04T06:39:22.707Z,88
2023-04-04T06:44:22.677Z,84
2023-04-04T06:49:22.189Z,82
2023-04-04T06:54:21.128Z,80
2023-04-04T06:59:04.727Z,79
2023-04-04T07:04:04.507Z,78
2023-04-04T07:09:04.006Z,76
2023-04-04T07:14:04.684Z,74
2023-04-04T07:19:01.978Z,72
2023-04-04T07:24:02.104Z,71
2023-04-04T07:29:01.942Z,69
2023-04-04T07:34:01.070Z,68
2023-04-04T07:39:00.658Z,67
2023-04-04T07:44:00.881Z,65
2023-04-04T07:49:00.206Z,65
2023-04-04T07:54:01.391Z,63
2023-04-04T07:58:58.651Z,62
2023-04-04T08:03:58.791Z,56
2023-04-04T08:08:57.475Z,52
2023-04-04T08:13:57.054Z,51
2023-04-04T08:18:55.874Z,51
2023-04-04T08:23:55.296Z,47
2023-04-04T08:28:55.719Z,48
2023-04-04T08:33:58.484Z,49
2023-04-04T08:38:54.924Z,47
2023-04-04T08:43:54.714Z,45
2023-04-04T08:48:54.675Z,44
2023-04-04T08:53:54.173Z,44
2023-04-04T08:58:55.037Z,47
2023-04-04T09:03:52.560Z,49
2023-04-04T09:08:52.099Z,47
2023-04-04T09:13:52.298Z,46
2023-04-04T09:18:50.695Z,46
2023-04-04T09:23:50.409Z,45
2023-04-04T09:28:50.398Z,45
2023-04-04T09:33:49.841Z,42
2023-04-04T09:38:50.972Z,42
2023-04-04T09:43:48.394Z,43
2023-04-04T09:48:47.915Z,38
2023-04-04T09:53:48.036Z,39
2023-04-04T09:59:00.579Z,42
2023-04-04T10:03:45.896Z,40
2023-04-04T10:08:45.892Z,39
2023-04-04T10:13:45.429Z,44
2023-04-04T10:18:44.834Z,40
2023-04-04T10:23:44.166Z,39
2023-04-04T10:28:44.072Z,39
2023-04-04T10:33:44.020Z,37
2023-04-04T10:38:43.019Z,38
2023-04-04T10:43:43.750Z,42
2023-04-04T10:48:40.912Z,39
2023-04-04T10:53:41.570Z,42
2023-04-04T10:58:40.403Z,38
2023-04-04T11:00:02.617Z,40
2023-04-04T11:59:15.644Z,33
2023-04-04T12:04:03.729Z,35
2023-04-04T12:09:03.462Z,35
2023-04-04T12:14:03.115Z,34
2023-04-04T12:19:02.752Z,34
2023-04-04T12:24:00.614Z,32
2023-04-04T12:29:00.280Z,34
2023-04-04T12:34:00.314Z,33
2023-04-04T12:38:59.738Z,36
2023-04-04T12:43:58.841Z,35
2023-04-04T12:48:58.437Z,34
2023-04-04T12:53:58.392Z,33
2023-04-04T12:58:58.185Z,35
2023-04-04T13:03:58.080Z,38
2023-04-04T13:08:55.680Z,38
2023-04-04T13:13:55.587Z,38
2023-04-04T13:18:55.489Z,35
2023-04-04T13:23:54.818Z,35
2023-04-04T13:28:53.437Z,37
2023-04-04T13:33:53.277Z,38
2023-04-04T13:38:53.277Z,36
2023-04-04T13:43:52.978Z,36
2023-04-04T13:48:52.041Z,35
2023-04-04T13:53:51.702Z,38
2023-04-04T13:58:51.440Z,37
2023-04-04T14:05:10.694Z,39
2023-04-04T14:10:11.159Z,36
2023-04-04T14:15:09.932Z,35
2023-04-04T14:20:09.614Z,39
2023-04-04T14:25:07.913Z,36
2023-04-04T14:30:07.352Z,35
2023-04-04T14:35:07.371Z,35
2023-04-04T14:40:06.492Z,37
2023-04-04T14:45:05.758Z,36
2023-04-04T14:50:06.188Z,36
2023-04-04T14:55:04.896Z,35
2023-04-04T14:59:07.646Z,36
2023-04-04T15:04:08.236Z,35
2023-04-04T15:09:12.364Z,38
2023-04-04T15:14:04.738Z,37
2023-04-04T15:19:03.709Z,40
2023-04-04T15:24:03.429Z,33
2023-04-04T15:29:01.944Z,35
2023-04-04T15:34:01.614Z,35
2023-04-04T15:39:01.280Z,34
2023-04-04T15:44:02.066Z,35
2023-04-04T15:48:59.265Z,35
2023-04-04T15:53:59.053Z,37
2023-04-04T15:58:58.054Z,42
2023-04-04T16:03:57.829Z,44
2023-04-04T16:08:55.811Z,41
2023-04-04T16:13:55.448Z,50
2023-04-04T16:18:55.508Z,52
2023-04-04T16:23:55.287Z,54
2023-04-04T16:28:57.421Z,55
2023-04-04T16:33:53.718Z,55
2023-04-04T16:38:53.748Z,55
2023-04-04T16:43:53.123Z,56
2023-04-04T16:48:53.971Z,58
2023-04-04T16:53:51.506Z,57
2023-04-04T16:58:51.332Z,58
2023-04-04T17:03:50.389Z,57
2023-04-04T17:08:50.081Z,58
2023-04-04T17:13:48.606Z,58
2023-04-04T17:18:48.210Z,59
2023-04-04T17:23:47.549Z,58
2023-04-04T17:28:48.369Z,58
2023-04-04T17:33:45.804Z,58
2023-04-04T17:38:45.437Z,59
2023-04-04T17:43:45.526Z,60
2023-04-04T17:48:44.861Z,59
2023-04-04T17:53:43.308Z,57
2023-04-04T17:58:42.709Z,58
2023-04-04T18:00:04.099Z,59
2023-04-04T18:05:03.572Z,59
2023-04-04T18:30:28.251Z,63
2023-04-04T19:04:23.396Z,67
2023-04-04T19:09:23.871Z,67
2023-04-04T19:14:21.653Z,68
2023-04-04T19:19:21.020Z,68
2023-04-04T19:24:21.141Z,68
2023-04-04T19:29:20.425Z,68
2023-04-04T19:34:18.745Z,68
2023-04-04T19:39:18.401Z,69
2023-04-04T19:44:18.331Z,69
2023-04-04T19:49:27.890Z,70
2023-04-04T19:54:25.922Z,70
2023-04-04T19:59:03.793Z,70
2023-04-04T20:04:03.350Z,71
2023-04-04T20:09:02.672Z,71
2023-04-04T20:14:01.353Z,71
2023-04-04T20:19:00.813Z,72
2023-04-04T20:24:00.842Z,72
2023-04-04T20:28:59.953Z,73
2023-04-04T20:33:58.005Z,73
2023-04-04T20:38:57.992Z,73
2023-04-04T20:43:57.124Z,74
2023-04-04T20:48:57.154Z,74
2023-04-04T20:53:55.316Z,75
2023-04-04T20:58:54.810Z,75
2023-04-04T21:00:26.652Z,75
2023-04-04T21:20:24.725Z,77
2023-04-04T21:25:19.995Z,77
2023-04-04T21:50:12.007Z,76
2023-04-04T21:59:29.443Z,76
2023-04-04T22:04:29.075Z,75
2023-04-04T22:09:28.529Z,75
2023-04-04T22:14:28.799Z,75
2023-04-04T22:19:28.112Z,75
2023-04-04T22:24:27.363Z,75
2023-04-04T22:29:28.015Z,75
2023-04-04T22:34:26.179Z,76
2023-04-04T22:39:25.314Z,76
2023-04-04T22:44:24.324Z,77
2023-04-04T22:49:23.873Z,77
2023-04-04T22:54:23.621Z,78
2023-04-04T22:59:09.330Z,78
2023-04-04T23:04:08.588Z,78
2023-04-04T23:09:09.722Z,78
2023-04-04T23:14:06.151Z,79
2023-04-04T23:19:05.778Z,79
2023-04-04T23:24:06.005Z,79
2023-04-04T23:29:05.635Z,79
2023-04-04T23:34:04.191Z,80
2023-04-04T23:39:03.672Z,80
2023-04-04T23:44:03.204Z,80
2023-04-04T23:49:04.084Z,80
2023-04-04T23:54:01.826Z,80
2023-04-04T23:59:01.618Z,80
